Time;durP1;ratioP1;P1;durP2;ratioP2;P2;SDS_P1;SDS_P2;PMS_P1;PMS_P2;Temp;Humidity;BMP_temperature;BMP_pressure;BME280_temperature;BME280_humidity;BME280_pressure;Samples;Min_cycle;Max_cycle;Signal;HPM_P1;HPM_P2
2023/04/30 00:03:11;;;;;;;7.33;5.90;;;;;;;17.26;52.69;99016.63;6981109;28;20290;-84
2023/04/30 00:06:32;;;;;;;6.00;5.37;;;;;;;17.52;53.36;99029.69;6958023;28;20320;-84
2023/04/30 00:09:54;;;;;;;6.97;6.00;;;;;;;17.50;53.61;99033.72;6957489;28;20207;-84
2023/04/30 00:13:17;;;;;;;9.77;5.97;;;;;;;17.34;54.83;99042.69;6955945;28;20797;-84
2023/04/30 00:16:39;;;;;;;6.90;6.00;;;;;;;17.19;53.13;98993.31;6957537;28;20320;-84
2023/04/30 00:20:01;;;;;;;6.57;5.97;;;;;;;17.53;52.53;99044.16;6956976;28;20232;-84
2023/04/30 00:23:22;;;;;;;6.57;5.67;;;;;;;17.59;51.80;99038.59;6954464;28;20206;-84
2023/04/30 00:26:44;;;;;;;7.10;6.17;;;;;;;17.10;51.12;98997.50;6956568;28;20765;-84
2023/04/30 00:30:08;;;;;;;10.07;5.97;;;;;;;17.31;51.13;99046.72;6956475;28;20575;-83
2023/04/30 00:33:29;;;;;;;6.40;5.80;;;;;;;17.21;50.52;99015.72;6954526;28;20297;-84
2023/04/30 00:36:51;;;;;;;6.87;6.10;;;;;;;17.03;50.81;99022.16;6956052;28;20725;-85
2023/04/30 00:40:13;;;;;;;7.27;6.30;;;;;;;17.00;51.59;99030.81;6954817;28;20256;-83
2023/04/30 00:43:34;;;;;;;6.03;5.43;;;;;;;17.37;50.48;99042.19;6954765;28;20209;-84
2023/04/30 00:46:57;;;;;;;6.90;6.20;;;;;;;17.31;51.51;99035.81;6955442;28;20219;-84
2023/04/30 00:50:19;;;;;;;7.97;6.27;;;;;;;17.30;50.99;99050.50;6955317;28;20267;-83
2023/04/30 00:53:40;;;;;;;6.57;5.87;;;;;;;17.06;51.60;99048.09;6953824;28;20209;-84
2023/04/30 00:57:02;;;;;;;8.67;6.03;;;;;;;17.27;50.98;99033.81;6953752;28;20227;-83
2023/04/30 01:00:25;;;;;;;6.20;5.60;;;;;;;16.91;54.24;99055.91;6953894;28;20249;-84
2023/04/30 01:03:48;;;;;;;6.73;5.17;;;;;;;16.62;55.00;99013.34;6953668;28;20290;-84
2023/04/30 01:07:09;;;;;;;6.90;5.53;;;;;;;16.91;55.10;99042.28;6954808;28;20289;-84
2023/04/30 01:10:36;;;;;;;7.77;5.57;;;;;;;16.57;54.31;98997.72;6969582;28;20205;-84
2023/04/30 01:14:07;;;;;;;6.63;5.97;;;;;;;17.01;52.65;99054.25;6980886;28;20236;-84
2023/04/30 01:17:32;;;;;;;6.00;5.40;;;;;;;17.35;51.64;99042.41;6981386;28;20581;-84
2023/04/30 01:21:00;;;;;;;7.57;5.80;;;;;;;17.03;53.85;99033.03;6980129;28;20211;-84
2023/04/30 01:24:37;;;;;;;6.13;5.57;;;;;;;17.03;53.67;99037.66;6980440;28;20693;-84
2023/04/30 01:28:05;;;;;;;7.97;6.00;;;;;;;17.31;53.07;99044.00;6980062;28;20274;-83
2023/04/30 01:31:28;;;;;;;6.40;5.80;;;;;;;17.16;52.90;99040.13;6980579;28;20737;-84
2023/04/30 01:34:49;;;;;;;7.07;5.80;;;;;;;17.22;52.99;99047.34;6979450;28;20291;-84
2023/04/30 01:38:19;;;;;;;6.73;6.03;;;;;;;17.00;54.19;99040.88;6979911;28;20260;-83
2023/04/30 01:41:47;;;;;;;7.00;6.30;;;;;;;16.79;54.74;99042.31;6979810;28;20196;-82
2023/04/30 01:45:40;;;;;;;7.10;6.10;;;;;;;17.26;53.54;99049.34;6980048;28;20234;-84
2023/04/30 01:49:09;;;;;;;7.30;6.43;;;;;;;16.35;52.34;98963.16;6979215;28;20263;-84
2023/04/30 01:52:37;;;;;;;7.80;6.77;;;;;;;17.04;51.30;99037.41;6979314;28;20192;-83
2023/04/30 01:56:02;;;;;;;8.50;7.57;;;;;;;16.63;52.82;99037.59;6979415;28;20294;-84
2023/04/30 01:59:24;;;;;;;7.90;7.10;;;;;;;16.23;52.82;99035.81;6979224;28;20295;-84
2023/04/30 02:02:47;;;;;;;9.77;7.23;;;;;;;16.97;51.63;99027.72;6973471;28;20244;-84
2023/04/30 02:06:08;;;;;;;8.20;6.97;;;;;;;16.64;51.86;99022.09;6978832;28;20328;-83
2023/04/30 02:09:30;;;;;;;8.80;7.90;;;;;;;16.17;52.92;99031.31;6980512;28;20373;-84
2023/04/30 02:12:52;;;;;;;7.83;7.13;;;;;;;16.00;53.12;98997.69;6978214;28;20204;-84
2023/04/30 02:16:13;;;;;;;9.27;8.37;;;;;;;15.91;53.05;99042.59;6978232;28;20370;-84
2023/04/30 02:19:36;;;;;;;10.57;8.13;;;;;;;15.75;53.60;99029.69;6978589;28;20319;-84
2023/04/30 02:22:58;;;;;;;10.87;8.70;;;;;;;15.94;53.83;99039.44;6977781;28;20799;-84
2023/04/30 02:26:20;;;;;;;10.73;8.83;;;;;;;15.93;53.53;99030.44;6978552;28;20234;-84
2023/04/30 02:29:41;;;;;;;10.57;8.23;;;;;;;15.64;54.45;99031.31;6978714;28;20618;-84
2023/04/30 02:33:04;;;;;;;9.97;8.47;;;;;;;16.04;52.98;99036.97;6977613;28;20207;-84
2023/04/30 02:36:26;;;;;;;9.77;8.77;;;;;;;16.51;51.79;99030.53;6977970;28;20228;-83
2023/04/30 02:39:48;;;;;;;10.03;8.43;;;;;;;16.51;51.87;99034.06;6978227;28;20256;-84
2023/04/30 02:43:09;;;;;;;8.60;7.70;;;;;;;16.60;51.50;99027.22;6978440;28;20311;-84
2023/04/30 02:46:31;;;;;;;9.73;7.80;;;;;;;16.77;51.20;99016.41;6978118;28;20239;-84
2023/04/30 02:49:52;;;;;;;10.07;7.97;;;;;;;16.90;50.38;99016.13;6978408;28;20295;-83
2023/04/30 02:53:15;;;;;;;9.90;8.53;;;;;;;16.86;50.86;99029.41;6978412;28;20211;-84
2023/04/30 02:56:37;;;;;;;8.90;8.00;;;;;;;16.83;51.16;99026.34;6979552;28;20269;-84
2023/04/30 02:59:59;;;;;;;9.53;8.07;;;;;;;16.47;51.84;99018.44;6978969;28;20220;-84
2023/04/30 03:03:20;;;;;;;10.47;8.13;;;;;;;16.73;51.11;99020.66;6977151;28;20683;-84
2023/04/30 03:06:42;;;;;;;9.70;8.70;;;;;;;16.27;51.79;99005.16;6976955;28;20243;-84
2023/04/30 03:10:06;;;;;;;8.33;7.53;;;;;;;16.46;51.82;99004.00;6980977;28;20290;-84
2023/04/30 03:13:28;;;;;;;7.33;6.63;;;;;;;16.11;54.36;99033.06;6980073;28;20287;-84
2023/04/30 03:16:49;;;;;;;8.60;6.97;;;;;;;16.13;53.81;99011.06;7004239;28;20311;-84
2023/04/30 03:20:12;;;;;;;8.30;6.87;;;;;;;16.11;54.96;99040.41;7003853;28;20234;-83
2023/04/30 03:23:34;;;;;;;8.70;7.47;;;;;;;16.14;54.58;99037.19;7003210;28;20739;-84
2023/04/30 03:26:57;;;;;;;9.53;6.70;;;;;;;16.19;54.48;99032.72;7004078;28;20222;-82
2023/04/30 03:30:18;;;;;;;7.40;6.70;;;;;;;16.36;53.42;99024.69;7003773;28;20218;-83
2023/04/30 03:33:40;;;;;;;7.30;6.60;;;;;;;16.03;53.08;98989.91;7003225;28;20283;-84
2023/04/30 03:37:02;;;;;;;9.17;7.23;;;;;;;16.29;53.40;99024.78;7003563;28;20207;-84
2023/04/30 03:40:24;;;;;;;9.43;7.80;;;;;;;16.21;53.37;99025.16;7003643;28;20226;-84
2023/04/30 03:43:47;;;;;;;9.37;7.90;;;;;;;15.35;54.55;98963.41;7003791;28;20202;-84
2023/04/30 03:47:08;;;;;;;9.40;8.40;;;;;;;15.91;53.82;99024.41;7005691;28;20299;-83
2023/04/30 03:50:30;;;;;;;13.20;9.23;;;;;;;16.27;52.55;99029.66;7005133;28;20234;-84
2023/04/30 03:53:51;;;;;;;9.80;8.77;;;;;;;15.78;53.33;99021.06;7005234;28;20297;-83
2023/04/30 03:57:13;;;;;;;11.37;9.33;;;;;;;16.23;52.35;99030.38;7006348;28;20203;-83
2023/04/30 04:00:37;;;;;;;10.67;9.30;;;;;;;15.45;53.13;98969.13;7006738;28;20379;-83
2023/04/30 04:03:58;;;;;;;12.50;9.40;;;;;;;15.35;54.21;99013.16;6975655;28;20229;-83
2023/04/30 04:07:20;;;;;;;9.77;8.63;;;;;;;15.53;53.56;99001.38;6978588;28;20681;-84
2023/04/30 04:10:41;;;;;;;10.70;8.93;;;;;;;15.94;53.04;99036.72;6978241;28;20299;-84
2023/04/30 04:14:03;;;;;;;11.20;9.43;;;;;;;15.42;54.82;99037.50;6977109;28;20288;-84
2023/04/30 04:17:26;;;;;;;11.00;9.23;;;;;;;15.68;52.97;98966.47;6977958;28;20257;-83
2023/04/30 04:20:47;;;;;;;9.63;8.63;;;;;;;16.06;52.98;99035.69;6978767;28;20207;-84
2023/04/30 04:24:09;;;;;;;10.23;8.83;;;;;;;16.06;53.21;99046.56;6978785;28;20298;-83
2023/04/30 04:27:30;;;;;;;9.70;8.70;;;;;;;16.24;53.06;99051.06;6984174;28;20782;-84
2023/04/30 04:30:52;;;;;;;9.87;8.43;;;;;;;15.84;52.46;98988.34;6983557;28;20843;-83
2023/04/30 04:34:15;;;;;;;13.57;9.43;;;;;;;15.40;53.00;98958.91;6986713;28;20258;-84
2023/04/30 04:37:37;;;;;;;10.30;9.13;;;;;;;16.33;52.61;99060.56;6985174;28;20345;-83
2023/04/30 04:40:58;;;;;;;12.73;9.17;;;;;;;15.71;52.89;98993.16;6983847;28;20242;-84
2023/04/30 04:44:20;;;;;;;10.43;9.33;;;;;;;16.11;52.94;99048.56;6983668;28;20314;-83
2023/04/30 04:47:42;;;;;;;11.80;10.23;;;;;;;16.38;51.41;99057.91;6982795;28;20231;-84
2023/04/30 04:51:05;;;;;;;10.70;9.57;;;;;;;16.00;52.29;99057.53;6980698;28;20291;-84
2023/04/30 04:54:27;;;;;;;12.70;9.80;;;;;;;15.74;52.52;99028.84;6983054;28;20692;-84
2023/04/30 04:57:48;;;;;;;10.37;9.27;;;;;;;15.68;52.04;98980.84;6983628;28;20204;-84
2023/04/30 05:01:10;;;;;;;11.00;9.97;;;;;;;16.29;51.99;99067.53;6956909;28;20208;-83
2023/04/30 05:04:31;;;;;;;10.80;9.67;;;;;;;15.99;53.16;99061.31;6955494;28;20232;-83
2023/04/30 05:07:54;;;;;;;12.03;10.07;;;;;;;15.34;53.04;98989.72;6956727;28;20728;-84
2023/04/30 05:11:16;;;;;;;12.13;9.73;;;;;;;16.30;51.70;99050.13;6958178;28;20296;-84
2023/04/30 05:14:38;;;;;;;13.77;10.27;;;;;;;16.00;52.55;99058.38;6990474;28;20235;-84
2023/04/30 05:17:59;;;;;;;12.83;9.77;;;;;;;16.16;52.48;99018.78;6984797;28;20265;-83
2023/04/30 05:21:21;;;;;;;11.73;9.30;;;;;;;16.34;51.95;99060.28;6984338;28;20397;-84
2023/04/30 05:24:44;;;;;;;10.83;9.43;;;;;;;16.51;51.29;99047.66;6984125;28;20229;-84
2023/04/30 05:28:06;;;;;;;11.70;9.27;;;;;;;16.31;51.48;99019.13;6985207;28;20205;-83
2023/04/30 05:31:28;;;;;;;10.27;9.23;;;;;;;16.66;51.12;99060.81;6984816;28;20213;-84
2023/04/30 05:34:49;;;;;;;11.20;9.83;;;;;;;16.64;50.62;99038.44;6985142;28;20290;-84
2023/04/30 05:38:11;;;;;;;12.20;9.20;;;;;;;16.85;50.75;99065.03;6984791;28;20639;-84
2023/04/30 05:41:34;;;;;;;9.97;8.97;;;;;;;16.81;50.74;99037.47;6986479;28;20270;-84
2023/04/30 05:44:55;;;;;;;9.67;8.60;;;;;;;17.01;50.22;99064.31;6986804;28;20240;-84
2023/04/30 05:48:17;;;;;;;11.97;9.60;;;;;;;16.64;50.41;98981.28;6987690;28;20279;-84
2023/04/30 05:51:38;;;;;;;8.97;8.00;;;;;;;17.01;49.57;99062.44;6988807;28;20291;-83
2023/04/30 05:55:00;;;;;;;9.53;8.53;;;;;;;17.26;49.87;99062.13;6987525;28;20273;-86
2023/04/30 05:58:23;;;;;;;9.63;8.73;;;;;;;16.87;50.91;99061.00;6987733;28;20315;-86
2023/04/30 06:01:44;;;;;;;10.00;9.00;;;;;;;17.17;50.06;99045.31;6982889;28;20266;-86
2023/04/30 06:05:08;;;;;;;9.63;8.67;;;;;;;17.40;49.45;99058.09;6978987;28;20264;-85
2023/04/30 06:08:29;;;;;;;12.17;8.93;;;;;;;17.76;47.28;99047.59;6979584;28;20294;-86
2023/04/30 06:11:51;;;;;;;8.93;8.07;;;;;;;16.97;50.89;99071.31;6979094;28;20628;-86
2023/04/30 06:15:14;;;;;;;8.80;8.00;;;;;;;17.52;48.87;99042.53;6979080;28;20367;-85
2023/04/30 06:18:35;;;;;;;11.00;8.27;;;;;;;17.43;49.39;99055.72;6978704;28;20235;-85
2023/04/30 06:21:57;;;;;;;8.50;7.70;;;;;;;17.89;48.56;99069.13;6979145;28;20687;-83
2023/04/30 06:25:19;;;;;;;11.80;8.77;;;;;;;17.60;48.06;98982.97;6978635;28;20353;-88
2023/04/30 06:28:41;;;;;;;8.03;7.27;;;;;;;18.45;47.93;99073.69;6977244;28;20327;-88
2023/04/30 06:32:04;;;;;;;9.00;8.00;;;;;;;19.29;46.23;99065.06;6977197;28;20248;-88
2023/04/30 06:35:25;;;;;;;10.50;7.73;;;;;;;19.32;45.02;99065.41;6978579;28;20273;-88
2023/04/30 06:38:47;;;;;;;11.80;8.93;;;;;;;18.69;46.08;99065.03;6978638;28;20317;-87
2023/04/30 06:42:08;;;;;;;11.20;8.63;;;;;;;18.01;47.25;99080.81;6980177;28;20344;-86
2023/04/30 06:45:30;;;;;;;9.87;8.73;;;;;;;17.75;47.46;99083.31;6978584;28;20230;-83
2023/04/30 06:48:53;;;;;;;9.63;8.60;;;;;;;17.27;48.85;99077.44;6973938;28;20207;-86
2023/04/30 06:52:14;;;;;;;8.67;7.77;;;;;;;17.26;49.86;99089.38;6950740;28;20286;-85
2023/04/30 06:55:36;;;;;;;9.03;8.13;;;;;;;18.01;47.34;99034.44;6952010;28;20225;-84
2023/04/30 06:58:57;;;;;;;8.20;7.27;;;;;;;18.27;46.47;99028.31;6968728;28;20740;-84
2023/04/30 07:02:19;;;;;;;10.47;8.70;;;;;;;17.43;47.38;99061.16;6982922;28;20276;-85
2023/04/30 07:05:42;;;;;;;9.53;8.50;;;;;;;18.19;47.29;99077.00;6977890;28;20330;-85
2023/04/30 07:09:03;;;;;;;8.73;7.80;;;;;;;17.17;48.31;99085.38;6975691;28;20262;-85
2023/04/30 07:12:25;;;;;;;11.17;8.20;;;;;;;16.94;48.84;99079.97;6964382;28;20306;-84
2023/04/30 07:15:47;;;;;;;8.83;8.03;;;;;;;17.74;47.98;99044.31;6950917;28;20230;-85
2023/04/30 07:19:08;;;;;;;8.30;7.50;;;;;;;18.11;47.24;99070.06;6950579;28;20294;-85
2023/04/30 07:22:31;;;;;;;7.67;6.97;;;;;;;19.20;43.75;99006.41;6949962;28;20376;-85
2023/04/30 07:25:53;;;;;;;8.77;7.87;;;;;;;19.19;43.19;99064.91;6949423;28;20222;-85
2023/04/30 07:29:14;;;;;;;7.70;7.00;;;;;;;18.21;45.26;99051.13;6950358;28;20621;-85
2023/04/30 07:32:36;;;;;;;8.33;7.03;;;;;;;18.30;46.59;99062.47;6949333;28;20202;-85
2023/04/30 07:35:58;;;;;;;7.27;6.57;;;;;;;18.98;44.15;99061.09;6953384;28;20223;-85
2023/04/30 07:39:21;;;;;;;7.83;6.73;;;;;;;18.92;44.65;99064.81;6949358;28;20472;-85
2023/04/30 07:42:43;;;;;;;7.60;6.90;;;;;;;19.36;42.47;99057.50;6949705;28;20671;-85
2023/04/30 07:46:05;;;;;;;8.93;7.20;;;;;;;19.42;42.33;99040.91;6949443;28;20227;-86
2023/04/30 07:49:27;;;;;;;8.10;6.80;;;;;;;19.60;42.48;99043.31;6948796;28;20199;-85
2023/04/30 07:52:48;;;;;;;6.90;6.30;;;;;;;19.70;41.81;99018.78;6948722;28;20211;-86
2023/04/30 07:56:11;;;;;;;7.10;6.40;;;;;;;20.13;40.60;99043.31;6949396;28;20357;-85
2023/04/30 07:59:33;;;;;;;7.43;6.13;;;;;;;19.75;41.98;99037.97;6950221;28;20365;-85
2023/04/30 08:02:55;;;;;;;6.67;6.07;;;;;;;21.43;37.76;99044.16;6954050;28;20215;-84
2023/04/30 08:06:16;;;;;;;6.80;5.67;;;;;;;21.09;38.16;98996.31;6954135;28;20239;-86
2023/04/30 08:09:38;;;;;;;6.63;6.03;;;;;;;20.61;39.53;99036.84;6954924;28;20295;-85
2023/04/30 08:13:00;;;;;;;6.00;5.43;;;;;;;20.71;40.45;99039.66;6953640;28;20230;-85
2023/04/30 08:16:22;;;;;;;5.37;4.97;;;;;;;20.54;38.92;99000.63;6954088;28;20246;-85
2023/04/30 08:19:43;;;;;;;6.30;5.47;;;;;;;21.18;37.58;99019.38;6954759;28;20319;-85
2023/04/30 08:23:05;;;;;;;6.87;5.90;;;;;;;20.41;38.18;99025.75;6953435;28;20253;-85
2023/04/30 08:26:27;;;;;;;6.83;5.50;;;;;;;21.33;38.58;99033.97;6954028;28;20225;-85
2023/04/30 08:29:50;;;;;;;5.53;5.03;;;;;;;20.45;38.45;99029.63;6953371;28;20286;-85
2023/04/30 08:33:11;;;;;;;5.60;5.10;;;;;;;19.39;38.13;98973.06;6952987;28;20639;-85
2023/04/30 08:36:33;;;;;;;5.43;4.93;;;;;;;20.09;37.10;99019.44;6953310;28;20227;-85
2023/04/30 08:39:54;;;;;;;5.03;4.53;;;;;;;20.18;37.28;99034.31;6953127;28;20321;-85
2023/04/30 08:43:16;;;;;;;4.93;4.53;;;;;;;19.23;38.03;99036.84;6952678;28;20356;-85
2023/04/30 08:46:40;;;;;;;4.63;4.23;;;;;;;19.68;37.59;99040.09;6952992;28;20293;-85
2023/04/30 08:50:02;;;;;;;4.37;3.80;;;;;;;20.29;35.12;99036.88;6953201;28;20362;-85
2023/04/30 08:53:23;;;;;;;4.13;3.70;;;;;;;20.15;35.83;99027.44;6952111;28;20218;-85
2023/04/30 08:56:45;;;;;;;4.17;3.77;;;;;;;19.77;35.38;99035.84;6952514;28;20719;-85
2023/04/30 09:00:08;;;;;;;3.80;3.50;;;;;;;19.16;37.20;99033.44;6953132;28;20290;-85
2023/04/30 09:03:32;;;;;;;3.40;3.10;;;;;;;19.42;35.53;98969.81;6952566;28;20207;-85
2023/04/30 09:06:57;;;;;;;5.73;3.93;;;;;;;19.08;36.49;99039.34;6955828;28;20300;-85
2023/04/30 09:10:21;;;;;;;4.40;3.23;;;;;;;19.42;37.17;99019.03;6977995;28;20238;-85
2023/04/30 09:13:43;;;;;;;3.57;3.27;;;;;;;20.17;35.50;98989.66;7005367;28;20190;-85
2023/04/30 09:17:04;;;;;;;3.50;3.20;;;;;;;21.51;33.69;99005.22;7006983;28;20296;-85
2023/04/30 09:20:27;;;;;;;4.43;3.63;;;;;;;21.30;32.03;99018.03;7007227;28;20226;-85
2023/04/30 09:23:55;;;;;;;3.47;2.90;;;;;;;21.14;33.02;99023.75;7006756;28;20348;-85
2023/04/30 09:27:18;;;;;;;3.23;2.93;;;;;;;19.56;33.97;99036.69;7007595;28;20202;-86
2023/04/30 09:30:40;;;;;;;4.07;3.07;;;;;;;21.04;33.55;99011.91;7007118;28;20293;-86
2023/04/30 09:34:02;;;;;;;3.33;2.87;;;;;;;21.33;33.41;99008.47;7006087;28;20249;-85
2023/04/30 09:37:36;;;;;;;2.70;2.50;;;;;;;22.09;31.20;99011.13;7006610;28;20216;-85
2023/04/30 09:40:59;;;;;;;3.20;2.90;;;;;;;22.04;31.99;98942.47;7007152;28;20698;-86
2023/04/30 09:44:27;;;;;;;7.17;3.23;;;;;;;22.21;29.75;98995.19;7006750;28;20239;-85
2023/04/30 09:47:49;;;;;;;3.43;3.10;;;;;;;20.54;32.62;99017.06;7006607;28;20206;-86
2023/04/30 09:51:10;;;;;;;4.00;3.10;;;;;;;21.23;32.43;99022.13;7006844;28;20296;-86
2023/04/30 09:54:33;;;;;;;3.20;2.90;;;;;;;20.41;33.30;99020.25;7005788;28;20320;-85
2023/04/30 09:57:55;;;;;;;3.40;3.10;;;;;;;20.62;33.82;99014.66;7007221;28;20235;-86
2023/04/30 10:01:18;;;;;;;3.07;2.80;;;;;;;21.45;32.07;98995.31;7005746;28;20253;-85
2023/04/30 10:04:42;;;;;;;3.00;2.80;;;;;;;20.46;34.29;99023.84;7005470;28;20241;-85
2023/04/30 10:08:05;;;;;;;3.40;3.10;;;;;;;21.34;33.12;99026.56;7006014;28;20299;-88
2023/04/30 10:11:28;;;;;;;3.60;2.83;;;;;;;20.82;33.49;99011.22;7006519;28;20206;-86
2023/04/30 10:14:52;;;;;;;5.07;3.53;;;;;;;20.00;33.81;99016.34;7006031;28;20756;-87
2023/04/30 10:18:17;;;;;;;3.70;3.40;;;;;;;20.14;34.32;99025.81;7007230;28;20340;-87
2023/04/30 10:21:40;;;;;;;4.07;3.70;;;;;;;20.43;33.47;99020.81;6991774;28;20258;-86
2023/04/30 10:25:02;;;;;;;3.90;3.60;;;;;;;20.63;32.82;98944.25;6950393;28;20695;-86
2023/04/30 10:28:26;;;;;;;5.77;4.10;;;;;;;20.18;33.87;98990.50;6950925;28;20277;-86
2023/04/30 10:31:48;;;;;;;5.07;4.13;;;;;;;21.00;34.44;99014.38;6950284;28;20219;-86
2023/04/30 10:35:13;;;;;;;4.10;3.67;;;;;;;20.68;33.48;98983.44;6950609;28;20452;-87
2023/04/30 10:38:36;;;;;;;3.57;3.27;;;;;;;20.25;34.71;99000.16;6950176;28;20201;-86
2023/04/30 10:42:02;;;;;;;3.87;3.57;;;;;;;20.55;33.62;99007.75;6949730;28;20231;-87
2023/04/30 10:45:36;;;;;;;3.77;3.47;;;;;;;20.90;32.72;99017.06;6950613;28;20306;-85
2023/04/30 10:48:59;;;;;;;3.53;3.23;;;;;;;19.52;34.30;98975.38;6955934;28;20191;-85
2023/04/30 10:52:27;;;;;;;3.63;3.33;;;;;;;19.59;33.63;98965.06;6949943;28;20215;-86
2023/04/30 10:55:54;;;;;;;3.17;2.87;;;;;;;20.36;33.64;98944.38;6950445;28;20229;-86
2023/04/30 10:59:16;;;;;;;3.50;3.20;;;;;;;21.57;32.41;99001.41;6950574;28;20195;-86
2023/04/30 11:02:42;;;;;;;3.57;3.27;;;;;;;20.99;32.69;98998.19;6949693;28;20200;-86
2023/04/30 11:06:09;;;;;;;4.67;3.80;;;;;;;20.40;34.27;98994.78;6950105;28;20349;-86
2023/04/30 11:09:41;;;;;;;5.43;3.30;;;;;;;21.95;33.46;98999.00;6952930;28;20210;-85
2023/04/30 11:13:04;;;;;;;3.00;2.80;;;;;;;21.96;32.42;98989.69;6949830;28;20243;-86
2023/04/30 11:16:29;;;;;;;3.47;3.17;;;;;;;21.28;32.38;98934.38;6949967;28;20295;-86
2023/04/30 11:19:53;;;;;;;3.37;3.03;;;;;;;20.38;34.10;98987.91;6950384;28;20233;-85
2023/04/30 11:23:16;;;;;;;3.77;3.00;;;;;;;21.27;32.55;98993.06;6949989;28;20210;-86
2023/04/30 11:27:12;;;;;;;3.53;3.23;;;;;;;21.40;32.62;98982.44;6948487;28;20374;-86
2023/04/30 11:30:34;;;;;;;2.93;2.73;;;;;;;21.81;32.43;98980.59;6865350;28;20305;-86
2023/04/30 11:33:56;;;;;;;3.30;2.93;;;;;;;21.91;31.65;98959.50;6876116;28;20316;-85
2023/04/30 11:37:22;;;;;;;3.40;3.10;;;;;;;21.52;31.68;98954.72;6949762;28;20686;-86
2023/04/30 11:40:44;;;;;;;3.00;2.70;;;;;;;21.43;32.73;98957.19;6949755;28;20210;-86
2023/04/30 11:44:22;;;;;;;3.63;3.33;;;;;;;22.27;31.29;98941.06;6949183;28;20756;-85
2023/04/30 11:47:45;;;;;;;3.27;2.97;;;;;;;21.80;31.94;98974.31;6952686;28;20273;-86
2023/04/30 11:51:15;;;;;;;3.60;3.23;;;;;;;22.10;31.69;98957.84;6951636;28;20284;-86
2023/04/30 11:54:38;;;;;;;4.77;3.30;;;;;;;21.62;32.49;98973.97;6960215;28;20308;-86
2023/04/30 11:58:00;;;;;;;3.37;3.07;;;;;;;21.51;32.35;98973.13;6950552;28;20725;-85
2023/04/30 12:01:21;;;;;;;4.33;3.57;;;;;;;20.29;33.91;98954.72;6949955;28;20270;-86
2023/04/30 12:04:44;;;;;;;3.40;3.10;;;;;;;20.69;33.54;98962.38;6949468;28;20305;-86
2023/04/30 12:08:07;;;;;;;3.40;3.10;;;;;;;20.96;32.85;98955.69;6949290;28;20210;-86
2023/04/30 12:11:31;;;;;;;3.70;3.40;;;;;;;20.77;33.87;98960.75;6973352;28;20202;-86
2023/04/30 12:14:53;;;;;;;3.63;3.33;;;;;;;20.10;34.55;98955.41;6976532;28;20331;-85
2023/04/30 12:18:15;;;;;;;5.03;3.60;;;;;;;20.65;34.34;98953.03;6981775;28;20206;-86
2023/04/30 12:21:37;;;;;;;3.20;3.00;;;;;;;20.43;33.32;98871.00;6981623;28;20277;-86
2023/04/30 12:25:00;;;;;;;5.27;3.40;;;;;;;20.35;34.33;98942.69;7004413;28;20326;-86
2023/04/30 12:28:23;;;;;;;4.83;3.43;;;;;;;20.20;34.52;98948.09;7003955;28;20210;-86
2023/04/30 12:31:46;;;;;;;4.30;3.67;;;;;;;20.73;34.41;98953.34;7003741;28;20294;-86
2023/04/30 12:35:09;;;;;;;4.17;3.20;;;;;;;21.87;33.12;98916.38;7003909;28;20542;-85
2023/04/30 12:38:30;;;;;;;4.70;3.13;;;;;;;21.68;32.86;98912.53;7004871;28;20207;-85
2023/04/30 12:41:52;;;;;;;3.77;3.40;;;;;;;21.65;32.81;98913.88;6975661;28;20284;-86
2023/04/30 12:45:45;;;;;;;3.50;3.07;;;;;;;21.68;32.47;98940.81;6976471;28;20228;-85
2023/04/30 12:49:06;;;;;;;3.13;2.93;;;;;;;20.92;33.69;98956.50;6980992;28;20624;-86
2023/04/30 12:52:28;;;;;;;4.53;3.40;;;;;;;20.97;34.04;98948.25;6979858;28;20618;-85
2023/04/30 12:56:14;;;;;;;3.60;3.30;;;;;;;21.22;34.06;98948.38;6979871;28;20422;-86
2023/04/30 12:59:37;;;;;;;3.40;3.10;;;;;;;20.97;33.29;98857.78;6980292;28;20734;-86
2023/04/30 13:03:00;;;;;;;4.40;3.50;;;;;;;20.60;33.24;98851.63;6981528;28;20341;-86
2023/04/30 13:06:22;;;;;;;4.50;3.50;;;;;;;22.66;31.23;98929.19;6987925;28;20245;-86
2023/04/30 13:09:43;;;;;;;3.10;2.80;;;;;;;22.12;31.45;98916.38;6980305;28;20354;-85
2023/04/30 13:13:05;;;;;;;3.17;2.93;;;;;;;22.43;31.55;98890.50;6979016;28;20703;-87
2023/04/30 13:16:27;;;;;;;2.80;2.60;;;;;;;22.61;29.67;98914.63;6979668;28;20237;-85
2023/04/30 13:19:50;;;;;;;3.37;3.07;;;;;;;20.42;32.90;98888.53;6979641;28;20234;-85
2023/04/30 13:23:11;;;;;;;3.57;2.90;;;;;;;20.95;33.95;98917.56;6979599;28;20207;-85
2023/04/30 13:26:33;;;;;;;3.33;3.00;;;;;;;20.91;32.28;98903.56;6964046;28;20393;-85
2023/04/30 13:29:54;;;;;;;3.73;2.80;;;;;;;20.85;32.68;98921.06;6952578;28;20268;-83
2023/04/30 13:33:16;;;;;;;3.57;3.27;;;;;;;21.16;33.09;98909.13;6952514;28;20239;-85
2023/04/30 13:36:39;;;;;;;3.63;3.33;;;;;;;20.57;32.79;98888.59;6952114;28;20228;-85
2023/04/30 13:40:02;;;;;;;3.20;2.90;;;;;;;20.15;34.23;98892.47;6952935;28;20206;-85
2023/04/30 13:43:24;;;;;;;3.73;3.20;;;;;;;20.41;33.91;98886.84;6953235;28;20218;-85
2023/04/30 13:46:45;;;;;;;3.37;3.17;;;;;;;20.78;33.92;98880.19;6955675;28;20335;-86
2023/04/30 13:50:08;;;;;;;3.63;2.90;;;;;;;21.64;32.49;98862.81;6980587;28;20281;-86
2023/04/30 13:53:31;;;;;;;2.80;2.60;;;;;;;21.17;32.10;98893.50;6985625;28;20196;-86
2023/04/30 13:56:52;;;;;;;3.63;3.20;;;;;;;21.48;32.81;98883.13;6990570;28;20228;-84
2023/04/30 14:00:15;;;;;;;3.17;2.87;;;;;;;21.05;32.98;98829.88;6982062;28;20255;-83
2023/04/30 14:03:37;;;;;;;3.03;2.80;;;;;;;22.05;31.32;98823.28;6979227;28;20675;-88
2023/04/30 14:06:59;;;;;;;3.93;3.53;;;;;;;21.39;31.54;98867.47;6979359;28;20740;-84
2023/04/30 14:10:21;;;;;;;4.00;3.10;;;;;;;21.07;32.49;98888.81;6981529;28;20650;-85
2023/04/30 14:13:43;;;;;;;3.33;3.03;;;;;;;21.94;31.14;98887.53;6981237;28;20682;-85
2023/04/30 14:17:04;;;;;;;3.00;2.80;;;;;;;22.48;29.50;98811.63;6965434;28;20347;-84
2023/04/30 14:20:26;;;;;;;3.33;2.90;;;;;;;21.50;30.58;98762.97;6953050;28;20280;-85
2023/04/30 14:23:48;;;;;;;3.40;3.10;;;;;;;21.64;31.14;98870.22;6950701;28;20204;-85
2023/04/30 14:27:10;;;;;;;6.37;3.20;;;;;;;21.82;30.54;98867.78;6951317;28;20216;-85
2023/04/30 14:30:32;;;;;;;3.07;2.83;;;;;;;21.84;31.48;98873.00;6952566;28;20210;-85
2023/04/30 14:33:54;;;;;;;2.83;2.60;;;;;;;21.35;32.67;98849.91;6977296;28;20799;-84
2023/04/30 14:37:15;;;;;;;3.77;3.40;;;;;;;21.16;33.20;98867.19;6979721;28;20298;-85
2023/04/30 14:40:37;;;;;;;3.00;2.70;;;;;;;21.91;31.56;98854.34;6979975;28;20225;-85
2023/04/30 14:44:00;;;;;;;3.27;2.97;;;;;;;21.28;31.76;98839.22;6979240;28;20314;-85
2023/04/30 14:47:25;;;;;;;3.00;2.80;;;;;;;21.95;31.99;98834.28;6971076;28;20277;-85
2023/04/30 14:50:47;;;;;;;3.13;2.93;;;;;;;22.02;31.46;98843.03;6979762;28;20576;-85
2023/04/30 14:54:08;;;;;;;3.80;3.20;;;;;;;22.62;31.51;98834.66;6977199;28;20299;-84
2023/04/30 14:57:30;;;;;;;3.27;3.07;;;;;;;22.32;30.16;98833.91;7007312;28;20678;-85
2023/04/30 15:00:53;;;;;;;7.53;3.10;;;;;;;21.66;31.48;98843.34;7007158;28;20267;-86
2023/04/30 15:04:14;;;;;;;4.67;3.10;;;;;;;22.39;30.49;98831.69;7005994;28;20293;-85
2023/04/30 15:07:36;;;;;;;3.73;2.80;;;;;;;22.37;31.21;98823.72;7006659;28;20295;-86
2023/04/30 15:10:58;;;;;;;4.47;3.10;;;;;;;22.50;30.12;98825.09;7006164;28;20203;-87
2023/04/30 15:14:19;;;;;;;4.30;3.10;;;;;;;20.08;32.59;98728.47;7006570;28;20264;-87
2023/04/30 15:17:42;;;;;;;3.03;2.83;;;;;;;21.14;32.37;98826.31;7006058;28;20260;-86
2023/04/30 15:21:04;;;;;;;3.13;2.90;;;;;;;21.65;32.24;98784.88;6994961;28;20230;-86
2023/04/30 15:24:25;;;;;;;3.40;3.07;;;;;;;22.55;31.92;98816.81;6949785;28;20231;-86
2023/04/30 15:27:47;;;;;;;3.40;3.10;;;;;;;21.83;30.51;98737.66;6969801;28;20212;-86
2023/04/30 15:31:10;;;;;;;3.67;3.13;;;;;;;21.33;31.98;98809.06;6978696;28;20295;-87
2023/04/30 15:34:33;;;;;;;3.10;2.73;;;;;;;21.60;32.12;98798.59;6977973;28;20239;-87
2023/04/30 15:37:54;;;;;;;4.17;2.80;;;;;;;21.84;30.62;98744.78;6978470;28;20248;-87
2023/04/30 15:41:16;;;;;;;2.87;2.67;;;;;;;21.98;30.67;98756.00;6962105;28;20256;-87
2023/04/30 15:44:37;;;;;;;3.00;2.70;;;;;;;21.98;31.72;98786.22;6950449;28;20239;-86
2023/04/30 15:47:59;;;;;;;3.07;2.80;;;;;;;22.27;31.41;98793.56;6958893;28;20205;-87
2023/04/30 15:51:22;;;;;;;3.23;3.00;;;;;;;21.82;30.44;98641.88;6950531;28;20824;-87
2023/04/30 15:54:44;;;;;;;3.10;2.80;;;;;;;21.58;32.28;98809.03;6949372;28;20222;-86